sensor_id;sensor_type;location;lat;lon;timestamp;pressure;altitude;pressure_sealevel;temperature;humidity
18795;BME280;29610;49.022;12.114;2023-03-13T00:01:36;97397.03;;;6.95;100.00
18795;BME280;29610;49.022;12.114;2023-03-13T00:04:07;97400.13;;;7.02;100.00
18795;BME280;29610;49.022;12.114;2023-03-13T00:06:38;97395.81;;;7.01;100.00
18795;BME280;29610;49.022;12.114;2023-03-13T00:09:09;97396.91;;;7.00;100.00
18795;BME280;29610;49.022;12.114;2023-03-13T00:11:38;97392.13;;;6.97;100.00
18795;BME280;29610;49.022;12.114;2023-03-13T00:14:08;97385.50;;;7.03;100.00
18795;BME280;29610;49.022;12.114;2023-03-13T00:16:37;97386.59;;;7.02;100.00
18795;BME280;29610;49.022;12.114;2023-03-13T00:19:08;97376.38;;;6.99;100.00
18795;BME280;29610;49.022;12.114;2023-03-13T00:21:37;97376.53;;;6.94;100.00
18795;BME280;29610;49.022;12.114;2023-03-13T00:24:10;97374.00;;;6.97;100.00
18795;BME280;29610;49.022;12.114;2023-03-13T00:26:38;97373.22;;;6.97;100.00
18795;BME280;29610;49.022;12.114;2023-03-13T00:29:07;97362.03;;;6.90;100.00
18795;BME280;29610;49.022;12.114;2023-03-13T00:31:36;97358.41;;;6.94;100.00
18795;BME280;29610;49.022;12.114;2023-03-13T00:34:04;97359.63;;;6.88;100.00
18795;BME280;29610;49.022;12.114;2023-03-13T00:36:35;97359.75;;;6.83;100.00
18795;BME280;29610;49.022;12.114;2023-03-13T00:39:05;97358.16;;;6.82;100.00
18795;BME280;29610;49.022;12.114;2023-03-13T00:41:36;97352.44;;;6.84;100.00
18795;BME280;29610;49.022;12.114;2023-03-13T00:44:05;97348.88;;;6.75;100.00
18795;BME280;29610;49.022;12.114;2023-03-13T00:46:35;97349.25;;;6.82;100.00
18795;BME280;29610;49.022;12.114;2023-03-13T00:49:04;97340.34;;;6.81;100.00
18795;BME280;29610;49.022;12.114;2023-03-13T00:51:34;97329.66;;;6.76;100.00
18795;BME280;29610;49.022;12.114;2023-03-13T00:54:03;97340.78;;;6.75;100.00
18795;BME280;29610;49.022;12.114;2023-03-13T00:56:32;97333.66;;;6.79;100.00
18795;BME280;29610;49.022;12.114;2023-03-13T00:59:01;97329.66;;;6.76;100.00
18795;BME280;29610;49.022;12.114;2023-03-13T01:01:33;97322.22;;;6.82;100.00
18795;BME280;29610;49.022;12.114;2023-03-13T01:04:05;97316.94;;;6.77;100.00
18795;BME280;29610;49.022;12.114;2023-03-13T01:06:39;97316.59;;;6.70;100.00
18795;BME280;29610;49.022;12.114;2023-03-13T01:09:12;97313.69;;;6.66;100.00
18795;BME280;29610;49.022;12.114;2023-03-13T01:11:43;97305.69;;;6.75;100.00
18795;BME280;29610;49.022;12.114;2023-03-13T01:14:18;97300.38;;;6.70;100.00
18795;BME280;29610;49.022;12.114;2023-03-13T01:16:47;97299.03;;;6.59;100.00
18795;BME280;29610;49.022;12.114;2023-03-13T01:19:16;97299.19;;;6.62;100.00
18795;BME280;29610;49.022;12.114;2023-03-13T01:21:47;97306.72;;;6.65;100.00
18795;BME280;29610;49.022;12.114;2023-03-13T01:24:15;97293.78;;;6.62;100.00
18795;BME280;29610;49.022;12.114;2023-03-13T01:26:45;97297.81;;;6.65;100.00
18795;BME280;29610;49.022;12.114;2023-03-13T01:29:15;97299.81;;;6.59;100.00
18795;BME280;29610;49.022;12.114;2023-03-13T01:31:44;97298.88;;;6.64;100.00
18795;BME280;29610;49.022;12.114;2023-03-13T01:34:12;97298.22;;;6.58;100.00
18795;BME280;29610;49.022;12.114;2023-03-13T01:36:41;97300.63;;;6.60;100.00
18795;BME280;29610;49.022;12.114;2023-03-13T01:39:11;97300.72;;;6.55;100.00
18795;BME280;29610;49.022;12.114;2023-03-13T01:41:40;97311.22;;;6.56;100.00
18795;BME280;29610;49.022;12.114;2023-03-13T01:44:21;97307.53;;;6.52;100.00
18795;BME280;29610;49.022;12.114;2023-03-13T01:46:51;97301.78;;;6.67;100.00
18795;BME280;29610;49.022;12.114;2023-03-13T01:49:24;97296.69;;;6.66;100.00
18795;BME280;29610;49.022;12.114;2023-03-13T01:52:06;97308.91;;;6.63;100.00
18795;BME280;29610;49.022;12.114;2023-03-13T01:54:49;97306.44;;;6.53;100.00
18795;BME280;29610;49.022;12.114;2023-03-13T01:57:25;97296.78;;;6.61;100.00
18795;BME280;29610;49.022;12.114;2023-03-13T01:59:58;97293.44;;;6.55;100.00
18795;BME280;29610;49.022;12.114;2023-03-13T02:02:43;97298.44;;;6.48;100.00
18795;BME280;29610;49.022;12.114;2023-03-13T02:05:16;97281.63;;;6.51;100.00
18795;BME280;29610;49.022;12.114;2023-03-13T02:07:54;97275.16;;;6.52;100.00
18795;BME280;29610;49.022;12.114;2023-03-13T02:10:27;97278.78;;;6.48;100.00
18795;BME280;29610;49.022;12.114;2023-03-13T02:12:58;97295.53;;;6.45;100.00
18795;BME280;29610;49.022;12.114;2023-03-13T02:15:29;97290.84;;;6.50;100.00
18795;BME280;29610;49.022;12.114;2023-03-13T02:17:59;97290.16;;;6.45;100.00
18795;BME280;29610;49.022;12.114;2023-03-13T02:20:27;97285.47;;;6.37;100.00
18795;BME280;29610;49.022;12.114;2023-03-13T02:23:03;97266.56;;;6.37;100.00
18795;BME280;29610;49.022;12.114;2023-03-13T02:25:42;97264.56;;;6.42;100.00
18795;BME280;29610;49.022;12.114;2023-03-13T02:28:18;97263.66;;;6.47;100.00
18795;BME280;29610;49.022;12.114;2023-03-13T02:30:51;97263.53;;;6.52;100.00
18795;BME280;29610;49.022;12.114;2023-03-13T02:33:25;97264.16;;;6.49;100.00
18795;BME280;29610;49.022;12.114;2023-03-13T02:35:55;97250.03;;;6.52;100.00
18795;BME280;29610;49.022;12.114;2023-03-13T02:38:28;97256.06;;;6.49;100.00
18795;BME280;29610;49.022;12.114;2023-03-13T02:41:00;97268.38;;;6.41;100.00
18795;BME280;29610;49.022;12.114;2023-03-13T02:43:32;97275.59;;;6.32;100.00
18795;BME280;29610;49.022;12.114;2023-03-13T02:46:07;97273.81;;;6.28;100.00
18795;BME280;29610;49.022;12.114;2023-03-13T02:48:43;97272.41;;;6.30;100.00
18795;BME280;29610;49.022;12.114;2023-03-13T02:51:19;97272.22;;;6.27;100.00
18795;BME280;29610;49.022;12.114;2023-03-13T02:53:53;97265.41;;;6.29;100.00
18795;BME280;29610;49.022;12.114;2023-03-13T02:56:26;97257.50;;;6.33;100.00
18795;BME280;29610;49.022;12.114;2023-03-13T02:58:56;97259.91;;;6.34;100.00
18795;BME280;29610;49.022;12.114;2023-03-13T03:01:26;97261.88;;;6.42;100.00
18795;BME280;29610;49.022;12.114;2023-03-13T03:03:54;97259.88;;;6.48;100.00
18795;BME280;29610;49.022;12.114;2023-03-13T03:06:24;97258.34;;;6.55;100.00
18795;BME280;29610;49.022;12.114;2023-03-13T03:08:54;97260.34;;;6.50;100.00
18795;BME280;29610;49.022;12.114;2023-03-13T03:11:26;97260.22;;;6.55;100.00
18795;BME280;29610;49.022;12.114;2023-03-13T03:14:00;97256.50;;;6.64;100.00
18795;BME280;29610;49.022;12.114;2023-03-13T03:16:35;97259.19;;;6.64;100.00
18795;BME280;29610;49.022;12.114;2023-03-13T03:19:05;97259.47;;;6.76;100.00
18795;BME280;29610;49.022;12.114;2023-03-13T03:21:34;97253.88;;;6.73;100.00
18795;BME280;29610;49.022;12.114;2023-03-13T03:24:04;97253.44;;;6.79;100.00
18795;BME280;29610;49.022;12.114;2023-03-13T03:26:34;97255.09;;;6.89;100.00
18795;BME280;29610;49.022;12.114;2023-03-13T03:29:10;97250.97;;;6.91;100.00
18795;BME280;29610;49.022;12.114;2023-03-13T03:31:40;97250.16;;;6.91;100.00
18795;BME280;29610;49.022;12.114;2023-03-13T03:34:08;97255.22;;;6.84;100.00
18795;BME280;29610;49.022;12.114;2023-03-13T03:36:37;97249.81;;;6.84;100.00
18795;BME280;29610;49.022;12.114;2023-03-13T03:39:06;97250.66;;;6.71;100.00
18795;BME280;29610;49.022;12.114;2023-03-13T03:41:36;97241.84;;;6.79;100.00
18795;BME280;29610;49.022;12.114;2023-03-13T03:44:06;97237.03;;;6.76;100.00
18795;BME280;29610;49.022;12.114;2023-03-13T03:46:46;97247.22;;;6.79;100.00
18795;BME280;29610;49.022;12.114;2023-03-13T03:49:16;97238.47;;;6.73;100.00
18795;BME280;29610;49.022;12.114;2023-03-13T03:51:45;97229.06;;;6.71;100.00
18795;BME280;29610;49.022;12.114;2023-03-13T03:54:16;97218.38;;;6.66;100.00
18795;BME280;29610;49.022;12.114;2023-03-13T03:56:46;97219.81;;;6.63;100.00
18795;BME280;29610;49.022;12.114;2023-03-13T03:59:14;97212.06;;;6.70;100.00
18795;BME280;29610;49.022;12.114;2023-03-13T04:01:46;97211.91;;;6.67;100.00
18795;BME280;29610;49.022;12.114;2023-03-13T04:04:20;97210.28;;;6.66;100.00
18795;BME280;29610;49.022;12.114;2023-03-13T04:06:53;97213.47;;;6.68;100.00
18795;BME280;29610;49.022;12.114;2023-03-13T04:09:21;97195.28;;;6.73;100.00
18795;BME280;29610;49.022;12.114;2023-03-13T04:11:51;97199.56;;;6.74;100.00
18795;BME280;29610;49.022;12.114;2023-03-13T04:14:20;97198.09;;;6.68;100.00
18795;BME280;29610;49.022;12.114;2023-03-13T04:16:49;97196.59;;;6.62;100.00
18795;BME280;29610;49.022;12.114;2023-03-13T04:19:18;97196.16;;;6.69;100.00
18795;BME280;29610;49.022;12.114;2023-03-13T04:21:47;97203.91;;;6.62;100.00
18795;BME280;29610;49.022;12.114;2023-03-13T04:24:17;97184.84;;;6.58;100.00
18795;BME280;29610;49.022;12.114;2023-03-13T04:26:46;97192.94;;;6.58;100.00
18795;BME280;29610;49.022;12.114;2023-03-13T04:29:16;97183.56;;;6.56;100.00
18795;BME280;29610;49.022;12.114;2023-03-13T04:31:53;97182.75;;;6.55;100.00
18795;BME280;29610;49.022;12.114;2023-03-13T04:34:32;97177.41;;;6.42;100.00
18795;BME280;29610;49.022;12.114;2023-03-13T04:37:12;97174.88;;;6.45;100.00
18795;BME280;29610;49.022;12.114;2023-03-13T04:39:52;97173.34;;;6.53;100.00
18795;BME280;29610;49.022;12.114;2023-03-13T04:42:53;97168.56;;;6.50;100.00
18795;BME280;29610;49.022;12.114;2023-03-13T04:45:38;97161.09;;;6.47;100.00
18795;BME280;29610;49.022;12.114;2023-03-13T04:48:30;97152.69;;;6.48;100.00
18795;BME280;29610;49.022;12.114;2023-03-13T04:51:28;97161.16;;;6.55;100.00
18795;BME280;29610;49.022;12.114;2023-03-13T04:54:15;97158.94;;;6.57;100.00
18795;BME280;29610;49.022;12.114;2023-03-13T04:57:10;97155.75;;;6.55;100.00
18795;BME280;29610;49.022;12.114;2023-03-13T04:59:53;97164.81;;;6.59;100.00
18795;BME280;29610;49.022;12.114;2023-03-13T05:02:52;97160.34;;;6.55;100.00
18795;BME280;29610;49.022;12.114;2023-03-13T05:05:21;97154.22;;;6.63;100.00
18795;BME280;29610;49.022;12.114;2023-03-13T05:08:12;97160.72;;;6.62;100.00
18795;BME280;29610;49.022;12.114;2023-03-13T05:11:04;97156.78;;;6.68;100.00
18795;BME280;29610;49.022;12.114;2023-03-13T05:13:51;97153.91;;;6.64;100.00
18795;BME280;29610;49.022;12.114;2023-03-13T05:16:38;97146.50;;;6.78;100.00
18795;BME280;29610;49.022;12.114;2023-03-13T05:19:27;97133.19;;;6.82;100.00
18795;BME280;29610;49.022;12.114;2023-03-13T05:22:21;97140.94;;;6.75;100.00
18795;BME280;29610;49.022;12.114;2023-03-13T05:25:09;97116.81;;;6.78;100.00
18795;BME280;29610;49.022;12.114;2023-03-13T05:27:46;97130.19;;;6.83;100.00
18795;BME280;29610;49.022;12.114;2023-03-13T05:30:29;97110.50;;;6.83;100.00
18795;BME280;29610;49.022;12.114;2023-03-13T05:33:24;97104.63;;;6.89;100.00
18795;BME280;29610;49.022;12.114;2023-03-13T05:36:10;97114.66;;;6.97;100.00
18795;BME280;29610;49.022;12.114;2023-03-13T05:38:56;97109.88;;;6.86;100.00
18795;BME280;29610;49.022;12.114;2023-03-13T05:41:38;97120.03;;;6.89;100.00
18795;BME280;29610;49.022;12.114;2023-03-13T05:44:30;97114.97;;;6.87;100.00
18795;BME280;29610;49.022;12.114;2023-03-13T05:47:32;97103.34;;;6.87;100.00
18795;BME280;29610;49.022;12.114;2023-03-13T05:50:18;97114.97;;;6.96;100.00
18795;BME280;29610;49.022;12.114;2023-03-13T05:53:06;97105.78;;;7.05;100.00
18795;BME280;29610;49.022;12.114;2023-03-13T05:55:53;97094.66;;;7.07;100.00
18795;BME280;29610;49.022;12.114;2023-03-13T05:58:41;97109.00;;;7.07;100.00
18795;BME280;29610;49.022;12.114;2023-03-13T06:01:15;97111.56;;;7.12;100.00
18795;BME280;29610;49.022;12.114;2023-03-13T06:03:56;97106.16;;;7.12;100.00
18795;BME280;29610;49.022;12.114;2023-03-13T06:06:26;97095.50;;;7.16;100.00
18795;BME280;29610;49.022;12.114;2023-03-13T06:08:57;97097.28;;;7.20;100.00
18795;BME280;29610;49.022;12.114;2023-03-13T06:11:28;97096.53;;;7.37;100.00
18795;BME280;29610;49.022;12.114;2023-03-13T06:13:57;97094.28;;;7.39;100.00
18795;BME280;29610;49.022;12.114;2023-03-13T06:16:32;97078.69;;;7.36;100.00
18795;BME280;29610;49.022;12.114;2023-03-13T06:19:20;97091.75;;;7.42;100.00
18795;BME280;29610;49.022;12.114;2023-03-13T06:21:48;97090.16;;;7.50;100.00
18795;BME280;29610;49.022;12.114;2023-03-13T06:24:18;97086.53;;;7.63;100.00
18795;BME280;29610;49.022;12.114;2023-03-13T06:26:47;97087.03;;;7.74;100.00
18795;BME280;29610;49.022;12.114;2023-03-13T06:29:16;97074.44;;;7.69;100.00
18795;BME280;29610;49.022;12.114;2023-03-13T06:31:45;97090.03;;;7.64;100.00
18795;BME280;29610;49.022;12.114;2023-03-13T06:34:14;97086.88;;;7.70;100.00
18795;BME280;29610;49.022;12.114;2023-03-13T06:36:43;97082.25;;;7.79;100.00
18795;BME280;29610;49.022;12.114;2023-03-13T06:39:12;97077.63;;;7.71;100.00
18795;BME280;29610;49.022;12.114;2023-03-13T06:41:42;97073.97;;;7.76;100.00
18795;BME280;29610;49.022;12.114;2023-03-13T06:44:10;97066.81;;;7.71;100.00
18795;BME280;29610;49.022;12.114;2023-03-13T06:46:39;97058.06;;;7.74;100.00
18795;BME280;29610;49.022;12.114;2023-03-13T06:49:08;97048.69;;;7.63;100.00
18795;BME280;29610;49.022;12.114;2023-03-13T06:51:37;97041.06;;;7.65;100.00
18795;BME280;29610;49.022;12.114;2023-03-13T06:54:06;97047.09;;;7.88;100.00
18795;BME280;29610;49.022;12.114;2023-03-13T06:56:35;97052.50;;;7.88;100.00
18795;BME280;29610;49.022;12.114;2023-03-13T06:59:05;97053.00;;;7.81;100.00
18795;BME280;29610;49.022;12.114;2023-03-13T07:01:33;97048.69;;;7.72;100.00
18795;BME280;29610;49.022;12.114;2023-03-13T07:04:02;97055.22;;;7.88;100.00
18795;BME280;29610;49.022;12.114;2023-03-13T07:06:30;97062.53;;;7.87;100.00
18795;BME280;29610;49.022;12.114;2023-03-13T07:08:59;97058.88;;;8.00;100.00
18795;BME280;29610;49.022;12.114;2023-03-13T07:11:28;97061.09;;;8.07;100.00
18795;BME280;29610;49.022;12.114;2023-03-13T07:13:57;97056.78;;;8.06;100.00
18795;BME280;29610;49.022;12.114;2023-03-13T07:16:44;97056.94;;;8.09;100.00
18795;BME280;29610;49.022;12.114;2023-03-13T07:19:12;97061.25;;;8.10;100.00
18795;BME280;29610;49.022;12.114;2023-03-13T07:21:42;97060.44;;;8.01;100.00
18795;BME280;29610;49.022;12.114;2023-03-13T07:24:13;97062.06;;;7.94;100.00
18795;BME280;29610;49.022;12.114;2023-03-13T07:26:42;97051.25;;;7.77;100.00
18795;BME280;29610;49.022;12.114;2023-03-13T07:29:28;97053.59;;;7.87;100.00
18795;BME280;29610;49.022;12.114;2023-03-13T07:31:58;97060.31;;;7.89;100.00
18795;BME280;29610;49.022;12.114;2023-03-13T07:34:27;97053.44;;;7.92;100.00
18795;BME280;29610;49.022;12.114;2023-03-13T07:36:56;97035.97;;;7.89;100.00
18795;BME280;29610;49.022;12.114;2023-03-13T07:39:25;97043.59;;;7.79;100.00
18795;BME280;29610;49.022;12.114;2023-03-13T07:41:53;97045.69;;;7.82;100.00
18795;BME280;29610;49.022;12.114;2023-03-13T07:44:22;97041.06;;;7.74;100.00
18795;BME280;29610;49.022;12.114;2023-03-13T07:46:51;97038.19;;;7.62;100.00
18795;BME280;29610;49.022;12.114;2023-03-13T07:49:21;97039.00;;;7.71;100.00
18795;BME280;29610;49.022;12.114;2023-03-13T07:51:49;97024.81;;;7.82;100.00
18795;BME280;29610;49.022;12.114;2023-03-13T07:54:18;97044.25;;;7.93;100.00
18795;BME280;29610;49.022;12.114;2023-03-13T07:56:46;97036.91;;;8.10;100.00
18795;BME280;29610;49.022;12.114;2023-03-13T07:59:15;97023.38;;;8.02;100.00
18795;BME280;29610;49.022;12.114;2023-03-13T08:01:44;97030.03;;;8.04;100.00
18795;BME280;29610;49.022;12.114;2023-03-13T08:04:13;97017.63;;;8.03;100.00
18795;BME280;29610;49.022;12.114;2023-03-13T08:06:43;97026.72;;;8.24;100.00
18795;BME280;29610;49.022;12.114;2023-03-13T08:09:11;97045.75;;;8.45;100.00
18795;BME280;29610;49.022;12.114;2023-03-13T08:11:40;97040.03;;;8.46;100.00
18795;BME280;29610;49.022;12.114;2023-03-13T08:14:10;97027.91;;;8.52;100.00
18795;BME280;29610;49.022;12.114;2023-03-13T08:16:39;97031.00;;;8.71;100.00
18795;BME280;29610;49.022;12.114;2023-03-13T08:19:09;97035.19;;;8.60;100.00
18795;BME280;29610;49.022;12.114;2023-03-13T08:21:38;97034.41;;;8.60;100.00
18795;BME280;29610;49.022;12.114;2023-03-13T08:24:10;97036.81;;;8.53;100.00
18795;BME280;29610;49.022;12.114;2023-03-13T08:26:41;97040.91;;;8.67;100.00
18795;BME280;29610;49.022;12.114;2023-03-13T08:29:12;97038.13;;;8.84;100.00
18795;BME280;29610;49.022;12.114;2023-03-13T08:31:44;97026.78;;;8.91;100.00
18795;BME280;29610;49.022;12.114;2023-03-13T08:34:16;97036.13;;;9.02;100.00
18795;BME280;29610;49.022;12.114;2023-03-13T08:36:45;97020.53;;;8.99;100.00
18795;BME280;29610;49.022;12.114;2023-03-13T08:39:17;97005.47;;;9.10;100.00
18795;BME280;29610;49.022;12.114;2023-03-13T08:41:46;96997.88;;;9.04;100.00
18795;BME280;29610;49.022;12.114;2023-03-13T08:44:17;97016.50;;;9.55;100.00
18795;BME280;29610;49.022;12.114;2023-03-13T08:46:48;97016.59;;;9.99;100.00
18795;BME280;29610;49.022;12.114;2023-03-13T08:49:16;96997.19;;;10.42;100.00
18795;BME280;29610;49.022;12.114;2023-03-13T08:51:46;96985.13;;;10.64;100.00
18795;BME280;29610;49.022;12.114;2023-03-13T08:54:16;96972.56;;;10.83;100.00
18795;BME280;29610;49.022;12.114;2023-03-13T08:56:44;96979.44;;;11.29;100.00
18795;BME280;29610;49.022;12.114;2023-03-13T08:59:13;96988.38;;;11.81;100.00
18795;BME280;29610;49.022;12.114;2023-03-13T09:01:42;96982.53;;;11.79;100.00
18795;BME280;29610;49.022;12.114;2023-03-13T09:04:11;96978.06;;;11.47;100.00
18795;BME280;29610;49.022;12.114;2023-03-13T09:06:40;96988.84;;;11.83;100.00
18795;BME280;29610;49.022;12.114;2023-03-13T09:09:09;96990.16;;;12.01;100.00
18795;BME280;29610;49.022;12.114;2023-03-13T09:11:40;96980.00;;;12.29;100.00
18795;BME280;29610;49.022;12.114;2023-03-13T09:14:09;96967.91;;;12.42;100.00
18795;BME280;29610;49.022;12.114;2023-03-13T09:16:38;96967.03;;;12.54;100.00
18795;BME280;29610;49.022;12.114;2023-03-13T09:19:06;96963.94;;;12.86;100.00
18795;BME280;29610;49.022;12.114;2023-03-13T09:21:36;96951.78;;;13.15;100.00
18795;BME280;29610;49.022;12.114;2023-03-13T09:24:06;96936.41;;;13.23;100.00
18795;BME280;29610;49.022;12.114;2023-03-13T09:26:35;96939.69;;;13.32;100.00
18795;BME280;29610;49.022;12.114;2023-03-13T09:29:06;96949.78;;;12.96;100.00
18795;BME280;29610;49.022;12.114;2023-03-13T09:31:35;96945.94;;;12.51;100.00
18795;BME280;29610;49.022;12.114;2023-03-13T09:34:04;96942.78;;;12.33;100.00
18795;BME280;29610;49.022;12.114;2023-03-13T09:36:33;96947.56;;;12.09;100.00
18795;BME280;29610;49.022;12.114;2023-03-13T09:39:02;96945.78;;;11.73;100.00
18795;BME280;29610;49.022;12.114;2023-03-13T09:41:37;96954.78;;;11.49;100.00
18795;BME280;29610;49.022;12.114;2023-03-13T09:44:21;96947.59;;;11.17;100.00
18795;BME280;29610;49.022;12.114;2023-03-13T09:47:01;96949.28;;;11.22;100.00
18795;BME280;29610;49.022;12.114;2023-03-13T09:49:35;96948.81;;;11.32;100.00
18795;BME280;29610;49.022;12.114;2023-03-13T09:52:15;96942.69;;;11.47;100.00
18795;BME280;29610;49.022;12.114;2023-03-13T09:54:51;96944.31;;;11.36;100.00
18795;BME280;29610;49.022;12.114;2023-03-13T09:57:31;96938.13;;;11.51;100.00
18795;BME280;29610;49.022;12.114;2023-03-13T10:00:07;96945.34;;;11.59;100.00
18795;BME280;29610;49.022;12.114;2023-03-13T10:02:45;96931.94;;;11.38;100.00
18795;BME280;29610;49.022;12.114;2023-03-13T10:05:21;96925.91;;;11.45;100.00
18795;BME280;29610;49.022;12.114;2023-03-13T10:07:50;96926.47;;;11.78;100.00
18795;BME280;29610;49.022;12.114;2023-03-13T10:10:33;96932.16;;;11.73;100.00
18795;BME280;29610;49.022;12.114;2023-03-13T10:13:19;96932.00;;;11.66;100.00
18795;BME280;29610;49.022;12.114;2023-03-13T10:15:56;96928.91;;;11.55;100.00
18795;BME280;29610;49.022;12.114;2023-03-13T10:18:26;96936.19;;;11.51;100.00
18795;BME280;29610;49.022;12.114;2023-03-13T10:20:59;96935.81;;;11.25;100.00
18795;BME280;29610;49.022;12.114;2023-03-13T10:23:38;96930.94;;;11.31;100.00
18795;BME280;29610;49.022;12.114;2023-03-13T10:26:14;96938.22;;;11.54;100.00
18795;BME280;29610;49.022;12.114;2023-03-13T10:28:44;96935.34;;;11.75;100.00
18795;BME280;29610;49.022;12.114;2023-03-13T10:31:23;96937.69;;;11.89;100.00
18795;BME280;29610;49.022;12.114;2023-03-13T10:34:04;96934.94;;;12.32;100.00
18795;BME280;29610;49.022;12.114;2023-03-13T10:36:41;96917.00;;;12.77;100.00
18795;BME280;29610;49.022;12.114;2023-03-13T10:39:16;96908.25;;;13.38;100.00
18795;BME280;29610;49.022;12.114;2023-03-13T10:41:47;96908.34;;;13.79;100.00
18795;BME280;29610;49.022;12.114;2023-03-13T10:44:18;96901.94;;;13.72;100.00
18795;BME280;29610;49.022;12.114;2023-03-13T10:46:50;96893.31;;;13.32;100.00
18795;BME280;29610;49.022;12.114;2023-03-13T10:49:21;96902.97;;;13.45;100.00
18795;BME280;29610;49.022;12.114;2023-03-13T10:51:52;96901.88;;;13.49;100.00
18795;BME280;29610;49.022;12.114;2023-03-13T10:54:24;96907.06;;;13.54;100.00
18795;BME280;29610;49.022;12.114;2023-03-13T10:57:18;96904.59;;;13.49;100.00
18795;BME280;29610;49.022;12.114;2023-03-13T10:59:50;96895.09;;;14.00;100.00
18795;BME280;29610;49.022;12.114;2023-03-13T11:02:35;96888.75;;;14.38;100.00
18795;BME280;29610;49.022;12.114;2023-03-13T11:05:30;96887.91;;;14.56;100.00
18795;BME280;29610;49.022;12.114;2023-03-13T11:08:18;96879.34;;;15.36;100.00
18795;BME280;29610;49.022;12.114;2023-03-13T11:10:57;96885.81;;;15.51;100.00
18795;BME280;29610;49.022;12.114;2023-03-13T11:13:35;96875.44;;;16.00;100.00
18795;BME280;29610;49.022;12.114;2023-03-13T11:16:17;96880.56;;;16.05;100.00
18795;BME280;29610;49.022;12.114;2023-03-13T11:19:25;96879.22;;;15.88;100.00
18795;BME280;29610;49.022;12.114;2023-03-13T11:22:17;96875.19;;;17.06;100.00
18795;BME280;29610;49.022;12.114;2023-03-13T11:25:01;96868.13;;;17.77;100.00
18795;BME280;29610;49.022;12.114;2023-03-13T11:27:37;96866.34;;;18.44;100.00
18795;BME280;29610;49.022;12.114;2023-03-13T11:30:31;96866.75;;;18.57;100.00
18795;BME280;29610;49.022;12.114;2023-03-13T11:33:20;96854.16;;;18.63;100.00
18795;BME280;29610;49.022;12.114;2023-03-13T11:36:00;96854.13;;;18.38;100.00
18795;BME280;29610;49.022;12.114;2023-03-13T11:38:35;96846.28;;;18.44;100.00
18795;BME280;29610;49.022;12.114;2023-03-13T11:41:24;96851.31;;;18.10;100.00
18795;BME280;29610;49.022;12.114;2023-03-13T11:44:23;96837.56;;;18.10;100.00
18795;BME280;29610;49.022;12.114;2023-03-13T11:47:33;96837.16;;;17.94;100.00
18795;BME280;29610;49.022;12.114;2023-03-13T11:50:25;96839.47;;;17.89;100.00
18795;BME280;29610;49.022;12.114;2023-03-13T11:53:28;96835.19;;;18.05;100.00
18795;BME280;29610;49.022;12.114;2023-03-13T11:56:12;96842.94;;;17.68;100.00
18795;BME280;29610;49.022;12.114;2023-03-13T11:59:01;96834.31;;;17.63;100.00
18795;BME280;29610;49.022;12.114;2023-03-13T12:01:40;96835.25;;;17.19;100.00
18795;BME280;29610;49.022;12.114;2023-03-13T12:04:21;96844.09;;;16.92;100.00
18795;BME280;29610;49.022;12.114;2023-03-13T12:06:58;96841.09;;;16.57;100.00
18795;BME280;29610;49.022;12.114;2023-03-13T12:09:38;96840.91;;;16.36;100.00
18795;BME280;29610;49.022;12.114;2023-03-13T12:12:18;96845.38;;;16.10;100.00
18795;BME280;29610;49.022;12.114;2023-03-13T12:14:57;96841.06;;;16.09;100.00
18795;BME280;29610;49.022;12.114;2023-03-13T12:17:33;96829.75;;;16.15;100.00
18795;BME280;29610;49.022;12.114;2023-03-13T12:20:07;96822.28;;;16.11;100.00
18795;BME280;29610;49.022;12.114;2023-03-13T12:22:45;96819.03;;;16.43;100.00
18795;BME280;29610;49.022;12.114;2023-03-13T12:25:23;96816.25;;;16.90;100.00
18795;BME280;29610;49.022;12.114;2023-03-13T12:27:57;96799.63;;;17.33;100.00
18795;BME280;29610;49.022;12.114;2023-03-13T12:30:38;96794.69;;;17.78;100.00
18795;BME280;29610;49.022;12.114;2023-03-13T12:33:19;96803.75;;;17.82;100.00
18795;BME280;29610;49.022;12.114;2023-03-13T12:36:00;96801.47;;;17.08;100.00
18795;BME280;29610;49.022;12.114;2023-03-13T12:38:38;96788.94;;;17.14;100.00
18795;BME280;29610;49.022;12.114;2023-03-13T12:41:19;96783.69;;;17.71;100.00
18795;BME280;29610;49.022;12.114;2023-03-13T12:43:52;96774.31;;;18.03;100.00
18795;BME280;29610;49.022;12.114;2023-03-13T12:46:44;96777.03;;;18.94;100.00
18795;BME280;29610;49.022;12.114;2023-03-13T12:49:58;96772.06;;;19.69;100.00
18795;BME280;29610;49.022;12.114;2023-03-13T12:53:09;96763.56;;;19.35;100.00
18795;BME280;29610;49.022;12.114;2023-03-13T12:56:05;96756.44;;;19.41;100.00
18795;BME280;29610;49.022;12.114;2023-03-13T12:58:46;96753.13;;;19.71;100.00
18795;BME280;29610;49.022;12.114;2023-03-13T13:01:29;96749.72;;;19.53;100.00
18795;BME280;29610;49.022;12.114;2023-03-13T13:04:03;96744.66;;;19.37;100.00
18795;BME280;29610;49.022;12.114;2023-03-13T13:06:56;96748.63;;;19.29;100.00
18795;BME280;29610;49.022;12.114;2023-03-13T13:09:30;96741.94;;;19.34;100.00
18795;BME280;29610;49.022;12.114;2023-03-13T13:12:17;96729.22;;;19.50;100.00
18795;BME280;29610;49.022;12.114;2023-03-13T13:15:02;96717.22;;;19.85;100.00
18795;BME280;29610;49.022;12.114;2023-03-13T13:18:00;96710.03;;;20.46;100.00
18795;BME280;29610;49.022;12.114;2023-03-13T13:20:42;96699.19;;;20.65;100.00
18795;BME280;29610;49.022;12.114;2023-03-13T13:23:31;96693.81;;;20.07;100.00
18795;BME280;29610;49.022;12.114;2023-03-13T13:26:48;96687.34;;;19.01;100.00
18795;BME280;29610;49.022;12.114;2023-03-13T13:29:59;96687.88;;;18.60;100.00